ADDS METAR Data INFO
IDs: Format: Raw Decoded Include TAF

Data at: 2333 UTC 15 Dec 2017

KAKO 152253Z AUTO 23007KT 10SM CLR 13/M11 A2988 RMK AO2 SLP121 T01281106
KAKO 152153Z AUTO 23009KT 10SM CLR 14/M13 A2989 RMK AO2 SLP126 T01441128
KAKO 152053Z AUTO 25010KT 10SM CLR 13/M12 A2990 RMK AO2 SLP129 T01331117 56030
KAKO 151953Z AUTO 23013KT 10SM CLR 12/M10 A2992 RMK AO2 SLP139 T01221100
KAKO 151853Z AUTO 26014KT 10SM CLR 09/M08 A2997 RMK AO2 SLP162 T00941083
KAKO 151753Z AUTO 26011KT 10SM CLR 07/M08 A3000 RMK AO2 SLP179 T00721083 10072 21083 58005
KAKO 151653Z AUTO 26013KT 10SM CLR 03/M09 A3001 RMK AO2 SLP195 T00331094
KAKO 151553Z AUTO 24011KT 10SM CLR 01/M11 A3001 RMK AO2 SLP199 T00111111
KAKO 151453Z AUTO 24015KT 10SM CLR M04/M12 A3001 RMK AO2 SLP209 T10441117 55013
KAKO 151353Z AUTO 26013KT 10SM CLR M07/M12 A3001 RMK AO2 SLP213 T10721122
KAKO 151253Z AUTO 27012KT 10SM CLR M08/M12 A3003 RMK AO2 SLP221 T10831122
KAKO 151153Z AUTO 26011KT 10SM CLR M07/M12 A3005 RMK AO2 SLP219 T10721117 11050 21078 56021
KAKO 151053Z AUTO 23012KT 10SM CLR M06/M11 A3007 RMK AO2 SLP219 T10561106
KAKO 150953Z AUTO 24009KT 10SM CLR M07/M11 A3010 RMK AO2 SLP231 T10721111
KAKO 150853Z AUTO 23014KT 10SM CLR M07/M11 A3012 RMK AO2 SLP239 T10721106 56021
KAKO 150753Z AUTO 22009KT 10SM CLR M07/M11 A3014 RMK AO2 SLP242 T10721106
KAKO 150653Z AUTO 24008KT 10SM CLR M07/M10 A3016 RMK AO2 SLP247 T10671100 400171089
KAKO 150553Z AUTO 22010KT 10SM CLR M07/M09 A3019 RMK AO2 SLP264 T10721094 11017 21089 58011
KAKO 150453Z AUTO 24008KT 10SM CLR M08/M10 A3021 RMK AO2 SLP271 T10781100
KAKO 150353Z AUTO 29007KT 10SM CLR M08/M11 A3022 RMK AO2 SLP277 T10781106
KAKO 150253Z AUTO 30005KT 10SM CLR M07/M09 A3023 RMK AO2 SLP279 T10721094 50005
KAKO 150153Z AUTO 32005KT 10SM CLR M06/M09 A3023 RMK AO2 SLP279 T10611089
KAKO 150053Z AUTO 34007KT 10SM SCT055 M04/M07 A3022 RMK AO2 SLP267 T10391072
KAKO 142353Z AUTO 36012KT 10SM OVC060 M02/M06 A3021 RMK AO2 SLP262 60000 T10171061 10017 21017 53009
KAKO 142253Z AUTO 35017G24KT 10SM OVC060 00/M07 A3020 RMK AO2 PK WND 36029/2219 SLP255 T00001072
KAKO 142153Z AUTO 36019G31KT 10SM FEW047 OVC060 01/M08 A3018 RMK AO2 PK WND 34035/2138 SLP245 T00061078
KAKO 142053Z AUTO 35021G32KT 10SM SCT041 BKN048 OVC075 01/M07 A3018 RMK AO2 PK WND 34034/2039 SNB04E27 SLP245 P0000 60000 T00061072 55000
KAKO 141953Z AUTO 35022G29KT 10SM BKN048 BKN055 OVC070 01/M06 A3018 RMK AO2 PK WND 34035/1857 SNB24E36 SLP242 P0000 T00111061
KAKO 141853Z AUTO 35026G35KT 10SM FEW043 OVC050 02/M06 A3018 RMK AO2 PK WND 35035/1844 SLP238 T00171061
KAKO 141808Z AUTO 32021G28KT 10SM SCT028 BKN038 OVC075 01/M02 A3018 RMK AO2 PK WND 32028/1807 T00111022
KAKO 141801Z AUTO 31017G26KT 10SM BKN029 BKN036 OVC045 01/M03 A3018 RMK AO2 PK WND 31026/1759 T00061028
KAKO 141753Z AUTO 31018G28KT 10SM SCT029 BKN036 OVC046 01/M03 A3018 RMK AO2 PK WND 32038/1702 SNE27B29E41 SLP238 P0000 60000 T00061028 10006 21022 50005
KAKO 141727Z AUTO 30019G28KT 9SM SCT035 BKN044 OVC055 00/M03 A3019 RMK AO2 PK WND 32038/1702 SNE27 P0000 T00001028
KAKO 141719Z AUTO 31019G33KT 2SM -SN BR BKN035 BKN044 OVC055 00/M02 A3019 RMK AO2 PK WND 32038/1702 P0000 T00001022
KAKO 141714Z AUTO 31020G35KT 1 1/4SM -SN BKN030 BKN036 OVC050 00/M03 A3018 RMK AO2 PK WND 32038/1702 P0000 T00001028
KAKO 141708Z AUTO 31024G38KT 1 1/2SM -SN BKN028 OVC038 00/M03 A3019 RMK AO2 PK WND 32038/1702 VIS 1V4 P0000 T00001028
KAKO 141653Z AUTO 33020G35KT 3SM -SN SCT029 BKN037 OVC070 00/M03 A3018 RMK AO2 PK WND 31037/1643 SNB42 SLP239 P0000 T00001033
KAKO 141553Z AUTO 29014KT 10SM OVC060 M01/M04 A3017 RMK AO2 SLP236 T10061039
KAKO 141453Z AUTO 28011KT 10SM OVC070 M01/M03 A3017 RMK AO2 SLP232 60000 T10111033 53005
KAKO 141353Z AUTO 27010KT 10SM BKN070 OVC090 M02/M04 A3015 RMK AO2 SNE1255 SLP229 P0000 T10221039
KAKO 141253Z AUTO 27011KT 7SM -SN OVC036 M01/M03 A3015 RMK AO2 SLP227 P0000 T10111028
KAKO 141210Z AUTO 30012KT 4SM -SN BR OVC039 M02/M03 A3015 RMK AO2 P0000 T10171028
KAKO 141202Z AUTO 30011KT 2 1/2SM -SN BR OVC033 M01/M03 A3015 RMK AO2 P0000 T10111028
KAKO 141153Z AUTO 30012KT 1 3/4SM -SN BR OVC033 M01/M03 A3015 RMK AO2 SLP222 P0000 60001 70001 T10111028 10022 21017 55000